Time;durP1;ratioP1;P1;durP2;ratioP2;P2;SDS_P1;SDS_P2;PMS_P1;PMS_P2;Temp;Humidity;BMP_temperature;BMP_pressure;BME280_temperature;BME280_humidity;BME280_pressure;Samples;Min_cycle;Max_cycle;Signal;HPM_P1;HPM_P2
2022/08/20 00:00:17;;;;;;;13.63;9.75;;;19.00;99.90;;;;;;5037508;28;20125;-69
2022/08/20 00:02:51;;;;;;;15.88;9.57;;;19.00;99.90;;;;;;5037693;28;20409;-70
2022/08/20 00:05:26;;;;;;;17.10;8.80;;;19.00;99.90;;;;;;5037615;28;20057;-70
2022/08/20 00:07:52;;;;;;;13.05;9.75;;;18.90;99.90;;;;;;5040106;28;20331;-70
2022/08/20 00:10:19;;;;;;;20.08;10.07;;;18.90;99.90;;;;;;5057620;28;20047;-69
2022/08/20 00:12:47;;;;;;;15.90;9.30;;;18.80;99.90;;;;;;5057640;28;20037;-70
2022/08/20 00:15:15;;;;;;;13.77;9.15;;;18.80;99.90;;;;;;5056904;28;20049;-70
2022/08/20 00:17:41;;;;;;;12.98;9.50;;;18.80;99.90;;;;;;5057337;28;20037;-69
2022/08/20 00:20:11;;;;;;;18.92;8.70;;;18.80;99.90;;;;;;5057021;28;20063;-71
2022/08/20 00:22:36;;;;;;;14.15;9.20;;;18.80;99.90;;;;;;5042010;28;20043;-70
2022/08/20 00:25:05;;;;;;;16.10;8.77;;;18.80;99.90;;;;;;5037686;28;20103;-70
2022/08/20 00:27:31;;;;;;;14.25;8.55;;;18.70;99.90;;;;;;5037207;28;20396;-70
2022/08/20 00:29:56;;;;;;;18.27;9.68;;;18.60;99.90;;;;;;5037367;28;20053;-70
2022/08/20 00:32:22;;;;;;;13.20;8.50;;;18.60;99.90;;;;;;5037116;28;20132;-70
2022/08/20 00:34:48;;;;;;;17.55;8.88;;;18.50;99.90;;;;;;5037150;28;20124;-70
2022/08/20 00:37:14;;;;;;;15.30;8.45;;;18.60;99.90;;;;;;5050074;28;20400;-70
2022/08/20 00:39:39;;;;;;;20.20;8.88;;;18.60;99.90;;;;;;5056019;28;20044;-70
2022/08/20 00:42:05;;;;;;;14.82;8.45;;;18.50;99.90;;;;;;5056941;28;20071;-69
2022/08/20 00:44:32;;;;;;;13.82;7.97;;;18.50;99.90;;;;;;5057103;28;20052;-70
2022/08/20 00:46:57;;;;;;;16.33;8.52;;;18.40;99.90;;;;;;5056721;28;20045;-70
2022/08/20 00:49:27;;;;;;;18.92;8.48;;;18.30;99.90;;;;;;5056907;28;20151;-70
2022/08/20 00:52:10;;;;;;;13.55;8.07;;;18.40;99.90;;;;;;5048139;28;20037;-69
2022/08/20 00:54:44;;;;;;;15.52;8.77;;;18.30;99.90;;;;;;5038694;28;20480;-69
2022/08/20 00:57:35;;;;;;;16.88;9.10;;;18.30;99.90;;;;;;5036787;28;20060;-69
2022/08/20 01:00:07;;;;;;;15.77;8.80;;;18.30;99.90;;;;;;5036422;28;20055;-70
2022/08/20 01:02:33;;;;;;;16.27;9.50;;;18.30;99.90;;;;;;5036307;28;20484;-71
2022/08/20 01:04:59;;;;;;;19.38;9.15;;;18.30;99.90;;;;;;5036402;28;20120;-70
2022/08/20 01:07:33;;;;;;;15.90;9.07;;;18.30;99.90;;;;;;5036868;28;20045;-69
2022/08/20 01:10:12;;;;;;;16.40;8.63;;;18.30;99.90;;;;;;5048303;28;20041;-70
2022/08/20 01:12:42;;;;;;;16.67;8.60;;;18.30;99.90;;;;;;5056636;28;20045;-70
2022/08/20 01:15:12;;;;;;;15.73;8.10;;;18.30;99.90;;;;;;5055943;28;20445;-70
2022/08/20 01:17:44;;;;;;;15.70;8.43;;;18.20;99.90;;;;;;5056149;28;20045;-69
2022/08/20 01:20:26;;;;;;;12.65;7.65;;;18.20;99.90;;;;;;5056247;28;20048;-69
2022/08/20 01:23:26;;;;;;;11.70;7.57;;;18.10;99.90;;;;;;5039371;28;20041;-69
2022/08/20 01:26:12;;;;;;;11.27;7.68;;;18.20;99.90;;;;;;5036180;28;20473;-69
2022/08/20 01:28:45;;;;;;;11.35;7.90;;;18.10;99.90;;;;;;5037164;28;20254;-70
2022/08/20 01:31:17;;;;;;;14.40;7.72;;;18.10;99.90;;;;;;5036843;28;20049;-69
2022/08/20 01:33:43;;;;;;;13.97;7.50;;;18.10;99.90;;;;;;5035839;28;20276;-69
2022/08/20 01:36:10;;;;;;;12.50;7.63;;;18.10;99.90;;;;;;5036090;28;20079;-70
2022/08/20 01:38:36;;;;;;;16.55;7.82;;;18.10;99.90;;;;;;5035724;28;20049;-69
2022/08/20 01:41:20;;;;;;;15.73;7.55;;;18.10;99.90;;;;;;5035949;28;20098;-69
2022/08/20 01:43:55;;;;;;;12.95;7.80;;;18.00;99.90;;;;;;5037482;28;20464;-70
2022/08/20 01:46:21;;;;;;;13.73;7.22;;;18.00;99.90;;;;;;5055658;28;20041;-71
2022/08/20 01:48:46;;;;;;;13.25;6.32;;;17.90;99.90;;;;;;5055741;28;20052;-70
2022/08/20 01:51:16;;;;;;;15.40;7.95;;;17.90;99.90;;;;;;5055131;28;20044;-69
2022/08/20 01:53:46;;;;;;;17.00;7.53;;;17.80;99.90;;;;;;5055529;28;20041;-69
2022/08/20 01:56:16;;;;;;;12.80;7.03;;;17.80;99.90;;;;;;5055210;28;20123;-70
2022/08/20 01:58:48;;;;;;;26.77;7.88;;;17.80;99.90;;;;;;5054775;28;20164;-69
2022/08/20 02:01:28;;;;;;;13.75;6.88;;;17.80;99.90;;;;;;5055444;28;20146;-69
2022/08/20 02:03:55;;;;;;;14.07;8.48;;;17.70;99.90;;;;;;5047603;28;20059;-70
2022/08/20 02:06:24;;;;;;;15.40;6.50;;;17.70;99.90;;;;;;5055456;28;20037;-70
2022/08/20 02:08:52;;;;;;;14.57;7.97;;;17.70;99.90;;;;;;5055617;28;20056;-69
2022/08/20 02:11:17;;;;;;;15.95;7.50;;;17.60;99.90;;;;;;5054978;28;20052;-70
2022/08/20 02:13:43;;;;;;;11.73;6.57;;;17.60;99.90;;;;;;5049093;28;20042;-70
2022/08/20 02:16:09;;;;;;;13.43;6.95;;;17.60;99.90;;;;;;5035613;28;20052;-70
2022/08/20 02:18:34;;;;;;;13.98;7.10;;;17.50;99.90;;;;;;5035246;28;20049;-69
2022/08/20 02:21:00;;;;;;;14.75;7.85;;;17.50;99.90;;;;;;5034848;28;20532;-70
2022/08/20 02:23:26;;;;;;;14.20;6.97;;;17.50;99.90;;;;;;5035132;28;20357;-70
2022/08/20 02:25:52;;;;;;;14.98;7.45;;;17.40;99.90;;;;;;5035486;28;20041;-69
2022/08/20 02:28:19;;;;;;;14.52;7.00;;;17.50;99.90;;;;;;5034678;28;20461;-70
2022/08/20 02:30:49;;;;;;;14.00;7.53;;;17.40;99.90;;;;;;5035057;28;20081;-70
2022/08/20 02:33:17;;;;;;;15.50;7.10;;;17.40;99.90;;;;;;5035069;28;20041;-70
2022/08/20 02:35:47;;;;;;;11.65;7.68;;;17.40;99.90;;;;;;5034834;28;20381;-70
2022/08/20 02:38:14;;;;;;;13.05;7.28;;;17.30;99.90;;;;;;5035276;28;20057;-71
2022/08/20 02:40:43;;;;;;;11.45;7.50;;;17.20;99.90;;;;;;5034773;28;20084;-69
2022/08/20 02:43:08;;;;;;;18.75;8.48;;;17.30;99.90;;;;;;5040038;28;20481;-70
2022/08/20 02:45:38;;;;;;;15.32;7.13;;;17.30;99.90;;;;;;5054775;28;20142;-70
2022/08/20 02:48:04;;;;;;;13.27;7.45;;;17.30;99.90;;;;;;5054801;28;20060;-70
2022/08/20 02:50:30;;;;;;;11.85;6.88;;;17.30;99.90;;;;;;5055373;28;20365;-70
2022/08/20 02:52:55;;;;;;;14.60;7.28;;;17.30;99.90;;;;;;5050045;28;20135;-69
2022/08/20 02:55:22;;;;;;;11.02;6.47;;;17.20;99.90;;;;;;5074775;28;20356;-70
2022/08/20 02:57:47;;;;;;;9.77;6.45;;;17.30;99.90;;;;;;5074535;28;20341;-70
2022/08/20 03:00:17;;;;;;;15.52;7.78;;;17.30;99.90;;;;;;5074867;28;20051;-70
2022/08/20 03:02:44;;;;;;;15.68;6.75;;;17.20;99.90;;;;;;5076833;28;20047;-69
2022/08/20 03:05:10;;;;;;;13.05;6.75;;;17.20;99.90;;;;;;5078667;28;20119;-69
2022/08/20 03:07:47;;;;;;;14.07;7.20;;;17.10;99.90;;;;;;5078841;28;20087;-70
2022/08/20 03:10:14;;;;;;;12.02;6.78;;;17.10;99.90;;;;;;5061247;28;20060;-69
2022/08/20 03:12:40;;;;;;;14.05;7.53;;;17.10;99.90;;;;;;5072649;28;20116;-70
2022/08/20 03:15:08;;;;;;;17.45;7.80;;;17.00;99.90;;;;;;5058550;28;20061;-70
2022/08/20 03:17:35;;;;;;;18.60;8.43;;;17.00;99.90;;;;;;5058420;28;20104;-70
2022/08/20 03:20:01;;;;;;;15.30;7.50;;;16.90;99.90;;;;;;5058233;28;20037;-70
2022/08/20 03:22:26;;;;;;;13.05;8.02;;;16.90;99.90;;;;;;5058276;28;20041;-69
2022/08/20 03:24:52;;;;;;;10.90;7.47;;;16.90;99.90;;;;;;5058567;28;20049;-69
2022/08/20 03:27:17;;;;;;;15.48;7.68;;;16.90;99.90;;;;;;5057774;28;20583;-69
2022/08/20 03:29:43;;;;;;;13.30;7.03;;;16.90;99.90;;;;;;5058168;28;20068;-69
2022/08/20 03:32:09;;;;;;;15.70;7.88;;;16.80;99.90;;;;;;5032414;28;20045;-69
2022/08/20 03:34:34;;;;;;;17.05;7.93;;;16.80;99.90;;;;;;5037955;28;20110;-69
2022/08/20 03:37:00;;;;;;;12.77;7.60;;;16.80;99.90;;;;;;5038514;28;20449;-70
2022/08/20 03:39:25;;;;;;;11.80;7.53;;;16.80;99.90;;;;;;5037998;28;20132;-69
2022/08/20 03:41:51;;;;;;;15.07;7.18;;;16.80;99.90;;;;;;5038321;28;20038;-69
2022/08/20 03:44:17;;;;;;;12.77;7.75;;;16.80;99.90;;;;;;5075962;28;20154;-71
2022/08/20 03:46:42;;;;;;;14.18;8.13;;;16.80;99.90;;;;;;5060235;28;20052;-70
2022/08/20 03:49:08;;;;;;;22.73;8.10;;;16.80;99.90;;;;;;5077755;28;20036;-69
2022/08/20 03:51:34;;;;;;;13.60;7.57;;;16.80;99.90;;;;;;5077866;28;20044;-70
2022/08/20 03:53:59;;;;;;;18.88;8.25;;;16.80;99.90;;;;;;5022815;28;20064;-69
2022/08/20 03:56:26;;;;;;;14.32;7.72;;;16.90;99.90;;;;;;5074522;28;20131;-70
2022/08/20 03:58:52;;;;;;;13.45;7.88;;;16.80;99.90;;;;;;5077443;28;20040;-70
2022/08/20 04:01:18;;;;;;;18.83;8.00;;;16.90;99.90;;;;;;5077823;28;20049;-69
2022/08/20 04:03:44;;;;;;;18.08;7.22;;;17.00;99.90;;;;;;5077918;28;20047;-70
2022/08/20 04:06:09;;;;;;;13.68;7.25;;;16.80;99.90;;;;;;5077937;28;20058;-68
2022/08/20 04:08:35;;;;;;;17.75;7.25;;;16.90;99.90;;;;;;5077680;28;20516;-70
2022/08/20 04:11:01;;;;;;;17.55;7.28;;;16.90;99.90;;;;;;5077549;28;20173;-69
2022/08/20 04:13:28;;;;;;;14.60;7.30;;;16.90;99.90;;;;;;5060600;28;20053;-69
2022/08/20 04:15:54;;;;;;;16.40;7.15;;;16.80;99.90;;;;;;5057539;28;20064;-69
2022/08/20 04:18:22;;;;;;;14.15;6.93;;;16.80;99.90;;;;;;5073823;28;20453;-70
2022/08/20 04:20:50;;;;;;;14.68;6.68;;;16.90;99.90;;;;;;5057123;28;20048;-70
2022/08/20 04:23:16;;;;;;;13.95;6.70;;;16.80;99.90;;;;;;5057347;28;20480;-69
2022/08/20 04:25:44;;;;;;;14.82;7.00;;;16.80;99.90;;;;;;5057208;28;20118;-70
2022/08/20 04:28:15;;;;;;;18.58;7.10;;;16.80;99.90;;;;;;5056566;28;20053;-69
2022/08/20 04:30:41;;;;;;;13.27;6.18;;;16.80;99.90;;;;;;5056849;28;20080;-70
2022/08/20 04:33:09;;;;;;;17.95;6.43;;;16.80;99.90;;;;;;5056935;28;20079;-70
2022/08/20 04:35:35;;;;;;;17.73;6.00;;;16.80;99.90;;;;;;5056803;28;20084;-69
2022/08/20 04:38:05;;;;;;;10.48;6.00;;;16.80;99.90;;;;;;5056907;28;20049;-70
2022/08/20 04:43:16;;;;;;;12.55;6.18;;;16.70;99.90;;;;;;5071639;28;20088;-70
2022/08/20 04:45:43;;;;;;;13.52;6.25;;;16.70;99.90;;;;;;5076750;28;20072;-70
2022/08/20 04:48:09;;;;;;;13.38;6.22;;;16.70;99.90;;;;;;5076502;28;20067;-70
2022/08/20 04:50:37;;;;;;;12.90;6.28;;;16.70;99.90;;;;;;5076721;28;20033;-69
2022/08/20 04:53:06;;;;;;;13.07;5.70;;;16.70;99.90;;;;;;5076248;28;20091;-69
2022/08/20 04:55:33;;;;;;;15.80;6.28;;;16.70;99.90;;;;;;5075946;28;20051;-70
2022/08/20 04:58:07;;;;;;;22.38;6.72;;;16.70;99.90;;;;;;5040581;28;20056;-69
2022/08/20 05:00:33;;;;;;;11.50;5.80;;;16.70;99.90;;;;;;5056162;28;20057;-70
2022/08/20 05:02:59;;;;;;;16.35;6.55;;;16.70;99.90;;;;;;5056299;28;20461;-69
2022/08/20 05:05:25;;;;;;;13.50;5.70;;;16.70;99.90;;;;;;5056724;28;20041;-70
2022/08/20 05:07:51;;;;;;;13.52;5.65;;;16.70;99.90;;;;;;5056330;28;20120;-70
2022/08/20 05:10:18;;;;;;;12.27;5.75;;;16.70;99.90;;;;;;5056198;28;20056;-69
2022/08/20 05:12:44;;;;;;;13.57;5.60;;;16.80;99.90;;;;;;5066322;28;20033;-69
2022/08/20 05:15:12;;;;;;;13.48;5.82;;;16.80;99.90;;;;;;5076112;28;20044;-69
2022/08/20 05:17:39;;;;;;;13.50;6.00;;;16.80;99.90;;;;;;5073322;28;20452;-70
2022/08/20 05:20:08;;;;;;;14.82;5.47;;;16.80;99.90;;;;;;5043423;28;20037;-68
2022/08/20 05:22:33;;;;;;;10.65;6.05;;;16.80;99.90;;;;;;5071564;28;20375;-68
2022/08/20 05:25:00;;;;;;;14.65;5.95;;;16.90;99.90;;;;;;5066918;28;20068;-69
2022/08/20 05:27:26;;;;;;;14.15;5.57;;;16.80;99.90;;;;;;5048209;28;20072;-68
2022/08/20 05:30:12;;;;;;;16.02;5.78;;;16.80;99.90;;;;;;5038174;28;20045;-68
2022/08/20 05:32:38;;;;;;;13.32;5.43;;;16.80;99.90;;;;;;5055604;28;20063;-68
2022/08/20 05:35:06;;;;;;;9.32;4.95;;;16.80;99.90;;;;;;5055641;28;20040;-68
2022/08/20 05:37:34;;;;;;;13.32;4.90;;;16.80;99.90;;;;;;5056187;28;20162;-69
2022/08/20 05:40:00;;;;;;;12.90;4.93;;;16.70;99.90;;;;;;5055399;28;20084;-68
2022/08/20 05:42:27;;;;;;;12.70;5.28;;;16.70;99.90;;;;;;5061163;28;20091;-69
2022/08/20 05:44:53;;;;;;;14.70;5.40;;;16.60;99.90;;;;;;5075679;28;20132;-69
2022/08/20 05:47:19;;;;;;;14.80;5.32;;;16.60;99.90;;;;;;5075610;28;20131;-68
2022/08/20 05:49:45;;;;;;;16.13;5.93;;;16.60;99.90;;;;;;5075134;28;20047;-68
2022/08/20 05:52:11;;;;;;;11.80;5.35;;;16.80;99.90;;;;;;5075297;28;20120;-69
2022/08/20 05:54:37;;;;;;;11.90;5.88;;;17.10;99.90;;;;;;5075171;28;20109;-69
2022/08/20 05:57:03;;;;;;;11.32;4.93;;;17.60;99.90;;;;;;5075324;28;20036;-69
2022/08/20 05:59:29;;;;;;;10.15;4.50;;;18.20;99.90;;;;;;5075150;28;20176;-68
2022/08/20 06:01:54;;;;;;;18.63;4.93;;;18.70;99.90;;;;;;5075409;28;20072;-69
2022/08/20 06:04:30;;;;;;;10.35;4.40;;;19.20;99.90;;;;;;5075117;28;20076;-68
2022/08/20 06:07:05;;;;;;;9.40;3.85;;;19.90;99.90;;;;;;5074864;28;20523;-69
2022/08/20 06:09:33;;;;;;;8.98;3.75;;;20.60;99.90;;;;;;5075095;28;20106;-70
2022/08/20 06:12:04;;;;;;;10.13;3.95;;;20.70;99.90;;;;;;5074698;28;20052;-69
2022/08/20 06:14:31;;;;;;;10.65;4.07;;;20.70;99.90;;;;;;5075102;28;20049;-70
2022/08/20 06:17:08;;;;;;;12.60;3.40;;;20.80;99.90;;;;;;5067028;28;20045;-70
2022/08/20 06:19:35;;;;;;;8.95;3.17;;;21.20;99.90;;;;;;5054916;28;20037;-69
2022/08/20 06:22:01;;;;;;;9.77;3.80;;;21.10;99.90;;;;;;5055065;28;20088;-69
2022/08/20 06:24:28;;;;;;;7.38;3.05;;;20.80;99.90;;;;;;5052745;28;20044;-72
2022/08/20 06:26:59;;;;;;;9.23;3.35;;;20.70;99.90;;;;;;5059408;28;20123;-70
2022/08/20 06:29:25;;;;;;;9.27;2.45;;;21.20;99.90;;;;;;5054434;28;20045;-70
2022/08/20 06:31:51;;;;;;;8.38;2.55;;;21.80;99.90;;;;;;5054576;28;20124;-69
2022/08/20 06:34:17;;;;;;;9.57;2.83;;;22.70;99.90;;;;;;5054556;28;20081;-69
2022/08/20 06:36:45;;;;;;;7.38;2.30;;;23.70;99.90;;;;;;5054610;28;20123;-70
2022/08/20 06:39:12;;;;;;;8.23;2.03;;;24.60;99.90;;;;;;5055036;28;20409;-70
2022/08/20 06:41:38;;;;;;;7.18;2.45;;;25.30;99.90;;;;;;5054494;28;20033;-70
2022/08/20 06:44:06;;;;;;;5.68;1.90;;;26.10;99.90;;;;;;5054888;28;20045;-70
2022/08/20 06:46:32;;;;;;;10.07;2.08;;;26.60;99.90;;;;;;5054338;28;20353;-70
2022/08/20 06:48:58;;;;;;;5.53;1.70;;;27.00;99.90;;;;;;5054442;28;20053;-70
2022/08/20 06:51:24;;;;;;;7.53;1.90;;;27.30;99.90;;;;;;5054671;28;20243;-69
2022/08/20 06:53:49;;;;;;;6.20;1.40;;;27.50;99.90;;;;;;5054655;28;20095;-71
2022/08/20 06:56:15;;;;;;;6.63;1.70;;;27.70;99.90;;;;;;5066120;28;20041;-70
2022/08/20 06:58:42;;;;;;;7.70;1.25;;;27.50;99.90;;;;;;5074710;28;20047;-70
2022/08/20 07:01:09;;;;;;;5.47;1.45;;;27.00;99.90;;;;;;5074171;28;20059;-70
2022/08/20 07:03:36;;;;;;;5.53;1.88;;;26.00;99.90;;;;;;5074497;28;20052;-70
2022/08/20 07:06:02;;;;;;;9.63;2.15;;;25.20;99.90;;;;;;5074814;28;20128;-70
2022/08/20 07:08:28;;;;;;;7.43;1.88;;;24.40;99.90;;;;;;5074505;28;20440;-70
2022/08/20 07:10:54;;;;;;;6.97;1.52;;;23.90;99.90;;;;;;5073978;28;20084;-70
2022/08/20 07:13:19;;;;;;;4.95;1.30;;;23.50;99.90;;;;;;5074854;28;20044;-70
2022/08/20 07:15:45;;;;;;;4.90;1.60;;;23.20;99.90;;;;;;5074590;28;20095;-69
2022/08/20 07:18:12;;;;;;;9.55;2.05;;;22.90;99.90;;;;;;5074776;28;20041;-70
2022/08/20 07:20:39;;;;;;;3.50;1.30;;;22.70;99.90;;;;;;5074266;28;20040;-70
2022/08/20 07:23:07;;;;;;;7.40;2.22;;;22.50;99.90;;;;;;5074470;28;20045;-70
2022/08/20 07:25:32;;;;;;;8.20;1.58;;;22.40;99.90;;;;;;5063692;28;20044;-70
2022/08/20 07:28:04;;;;;;;6.50;1.50;;;22.20;99.90;;;;;;5053907;28;20057;-70
2022/08/20 07:33:14;;;;;;;4.38;1.25;;;22.10;99.90;;;;;;5054433;28;20057;-70
2022/08/20 07:35:40;;;;;;;4.88;1.52;;;22.20;99.90;;;;;;5054621;28;20045;-69
2022/08/20 07:38:12;;;;;;;6.60;1.73;;;22.20;99.90;;;;;;5054055;28;20120;-70
2022/08/20 07:40:37;;;;;;;4.82;1.20;;;22.10;99.90;;;;;;5066769;28;20368;-70
2022/08/20 07:43:03;;;;;;;2.47;1.27;;;22.00;99.90;;;;;;5073805;28;20044;-70
2022/08/20 07:45:29;;;;;;;4.32;1.23;;;21.90;99.90;;;;;;5074342;28;20468;-70
2022/08/20 07:48:06;;;;;;;8.93;1.35;;;21.70;99.90;;;;;;5074035;28;20500;-70
2022/08/20 07:50:31;;;;;;;7.75;1.50;;;21.60;99.90;;;;;;5077181;28;20056;-70
2022/08/20 07:52:59;;;;;;;4.88;1.77;;;21.90;99.90;;;;;;5078002;28;20044;-70
2022/08/20 07:55:25;;;;;;;6.53;1.60;;;22.90;99.90;;;;;;5068555;28;20051;-70
2022/08/20 07:57:50;;;;;;;7.30;1.25;;;23.20;99.90;;;;;;5057356;28;20041;-70
2022/08/20 08:00:19;;;;;;;6.65;1.10;;;23.00;99.90;;;;;;5057632;28;20088;-70
2022/08/20 08:02:45;;;;;;;6.28;1.70;;;22.70;99.90;;;;;;5057575;28;20127;-70
2022/08/20 08:05:11;;;;;;;4.88;1.30;;;22.40;99.90;;;;;;5057424;28;20049;-70
2022/08/20 08:07:38;;;;;;;2.58;0.80;;;22.20;99.90;;;;;;5057304;28;20434;-70
2022/08/20 08:10:06;;;;;;;10.82;1.83;;;22.10;99.90;;;;;;5057421;28;20397;-70
2022/08/20 08:12:42;;;;;;;8.70;1.77;;;22.10;99.90;;;;;;5057226;28;20052;-70
2022/08/20 08:15:13;;;;;;;4.93;1.45;;;23.10;99.90;;;;;;5057685;28;20063;-70
2022/08/20 08:17:38;;;;;;;7.00;1.35;;;24.30;99.90;;;;;;5057455;28;20056;-70
2022/08/20 08:20:06;;;;;;;6.25;1.50;;;25.20;99.90;;;;;;5057128;28;20045;-70
2022/08/20 08:22:31;;;;;;;4.55;1.10;;;25.80;99.90;;;;;;5057543;28;20045;-70
2022/08/20 08:25:01;;;;;;;5.97;1.30;;;26.40;99.90;;;;;;5065501;28;20122;-70
2022/08/20 08:27:31;;;;;;;2.88;1.20;;;26.90;98.90;;;;;;5071973;28;20123;-70
2022/08/20 08:29:58;;;;;;;3.00;0.90;;;26.70;97.00;;;;;;5056996;28;20041;-70
2022/08/20 08:32:24;;;;;;;4.80;1.08;;;26.70;95.50;;;;;;5056900;28;20096;-70
2022/08/20 08:34:50;;;;;;;6.45;0.90;;;26.60;97.30;;;;;;5057292;28;20048;-70
2022/08/20 08:37:15;;;;;;;5.00;1.20;;;27.00;97.70;;;;;;5056941;28;20472;-70
2022/08/20 08:39:41;;;;;;;7.68;1.40;;;27.40;97.80;;;;;;5056725;28;20055;-70
2022/08/20 08:42:31;;;;;;;9.05;1.42;;;27.70;97.70;;;;;;5057149;28;20055;-70
2022/08/20 08:44:56;;;;;;;2.47;0.82;;;28.00;94.50;;;;;;5066816;28;20044;-70
2022/08/20 08:47:36;;;;;;;6.38;0.95;;;27.90;95.70;;;;;;5076787;28;20097;-70
2022/08/20 08:50:04;;;;;;;3.90;0.90;;;27.70;93.50;;;;;;5076704;28;20055;-70
2022/08/20 08:52:33;;;;;;;4.22;1.10;;;27.50;95.40;;;;;;5076765;28;20040;-70
2022/08/20 08:55:03;;;;;;;3.33;1.10;;;27.50;95.00;;;;;;5076618;28;20167;-70
2022/08/20 08:57:29;;;;;;;3.20;1.00;;;27.70;95.70;;;;;;5077186;28;20032;-70
2022/08/20 09:00:10;;;;;;;3.83;1.17;;;27.40;94.70;;;;;;5075986;28;20043;-70
2022/08/20 09:02:37;;;;;;;2.88;0.88;;;27.10;93.10;;;;;;5076430;28;20058;-70
2022/08/20 09:05:14;;;;;;;6.75;1.00;;;26.30;93.80;;;;;;5076896;28;20040;-70
2022/08/20 09:07:44;;;;;;;3.85;1.02;;;25.80;94.00;;;;;;5076743;28;20048;-69
2022/08/20 09:10:10;;;;;;;4.82;1.20;;;25.50;96.40;;;;;;5077047;28;20072;-70
2022/08/20 09:12:35;;;;;;;4.45;1.33;;;25.30;97.30;;;;;;5076231;28;20181;-70
2022/08/20 09:15:01;;;;;;;4.07;0.70;;;25.10;97.10;;;;;;5060882;28;20045;-70
2022/08/20 09:17:26;;;;;;;6.00;1.00;;;24.90;96.50;;;;;;5074564;28;20048;-69
2022/08/20 09:19:52;;;;;;;5.20;0.82;;;24.60;96.30;;;;;;5076203;28;20045;-69
2022/08/20 09:22:21;;;;;;;5.80;1.00;;;24.30;96.10;;;;;;5076294;28;20143;-69
2022/08/20 09:24:47;;;;;;;4.90;1.10;;;24.10;96.70;;;;;;5075998;28;20044;-70
2022/08/20 09:27:13;;;;;;;1.98;0.80;;;24.10;96.70;;;;;;5075744;28;20057;-69
2022/08/20 09:29:39;;;;;;;4.05;1.00;;;24.20;96.70;;;;;;5075917;28;20334;-70
2022/08/20 09:32:12;;;;;;;6.47;1.42;;;24.30;96.60;;;;;;5074818;28;20044;-70
2022/08/20 09:34:41;;;;;;;3.05;0.85;;;24.60;96.70;;;;;;5046173;28;20481;-72
2022/08/20 09:37:07;;;;;;;5.28;0.98;;;24.80;94.40;;;;;;5058112;28;20468;-69
2022/08/20 09:39:32;;;;;;;5.35;1.17;;;25.00;94.90;;;;;;5052626;28;20037;-71
2022/08/20 09:42:15;;;;;;;4.63;1.45;;;25.30;95.40;;;;;;5055308;28;20045;-70
2022/08/20 09:44:41;;;;;;;;;;;25.50;92.80;;;;;;5063753;28;20041;-71
2022/08/20 09:47:07;;;;;;;3.75;0.90;;;25.60;92.10;;;;;;5053061;28;20256;-71
2022/08/20 09:49:33;;;;;;;5.35;1.50;;;25.50;93.90;;;;;;5053022;28;20428;-71
2022/08/20 09:52:00;;;;;;;5.63;1.55;;;25.10;94.30;;;;;;5055355;28;20037;-70
2022/08/20 09:54:28;;;;;;;4.47;1.50;;;24.80;94.40;;;;;;5055347;28;20045;-70
2022/08/20 09:56:56;;;;;;;4.13;1.00;;;24.60;93.60;;;;;;5054113;28;20049;-70
2022/08/20 09:59:22;;;;;;;4.60;0.90;;;24.60;94.50;;;;;;5049644;28;20045;-70
2022/08/20 10:01:48;;;;;;;3.45;1.15;;;24.40;95.10;;;;;;5054939;28;20071;-70
2022/08/20 10:04:14;;;;;;;2.42;1.08;;;24.20;95.50;;;;;;5054585;28;20040;-70
2022/08/20 10:06:40;;;;;;;4.85;0.90;;;24.00;95.50;;;;;;5054895;28;20087;-69
2022/08/20 10:09:06;;;;;;;22.13;1.52;;;23.70;94.60;;;;;;5054206;28;20475;-69
2022/08/20 10:11:31;;;;;;;4.93;0.93;;;23.40;95.00;;;;;;5053577;28;20048;-69
2022/08/20 10:13:57;;;;;;;4.85;1.17;;;23.30;96.20;;;;;;5057876;28;20044;-71
2022/08/20 10:16:23;;;;;;;7.25;1.55;;;23.20;96.80;;;;;;5055021;28;20055;-74
2022/08/20 10:18:48;;;;;;;4.78;1.60;;;23.20;97.80;;;;;;5054894;28;20427;-72
2022/08/20 10:21:14;;;;;;;9.38;1.17;;;23.20;97.50;;;;;;5054740;28;20044;-73
2022/08/20 10:23:40;;;;;;;5.60;1.15;;;23.40;96.40;;;;;;5054917;28;20041;-72
2022/08/20 10:26:07;;;;;;;3.80;1.25;;;23.50;96.50;;;;;;5054727;28;20068;-73
2022/08/20 10:28:33;;;;;;;4.22;1.00;;;23.90;96.90;;;;;;5054125;28;20469;-74
2022/08/20 10:30:58;;;;;;;7.57;1.05;;;24.30;96.80;;;;;;5054493;28;20040;-70
2022/08/20 10:33:24;;;;;;;7.15;1.15;;;24.70;96.40;;;;;;5054857;28;20044;-71
2022/08/20 10:35:50;;;;;;;7.25;1.58;;;24.90;95.60;;;;;;5054591;28;20080;-73
2022/08/20 10:38:15;;;;;;;4.35;1.10;;;25.00;94.50;;;;;;5035229;28;20107;-72
2022/08/20 10:40:41;;;;;;;3.83;1.25;;;24.50;93.20;;;;;;5017389;28;20053;-72
2022/08/20 10:43:06;;;;;;;3.20;1.00;;;24.30;93.80;;;;;;5035122;28;20076;-72
2022/08/20 10:45:32;;;;;;;3.50;0.95;;;24.10;93.80;;;;;;5034930;28;20052;-71
2022/08/20 10:47:59;;;;;;;4.90;1.00;;;24.10;94.70;;;;;;5034234;28;20134;-71
2022/08/20 10:50:24;;;;;;;3.30;0.82;;;24.30;95.10;;;;;;5034633;28;20060;-72
2022/08/20 10:52:50;;;;;;;2.60;0.93;;;24.50;95.40;;;;;;5034919;28;20042;-72
2022/08/20 10:55:16;;;;;;;4.15;1.13;;;24.70;94.80;;;;;;5035095;28;20127;-72
2022/08/20 10:57:42;;;;;;;4.47;1.00;;;24.90;94.70;;;;;;5035022;28;20368;-72
2022/08/20 11:00:09;;;;;;;3.85;1.17;;;25.30;95.50;;;;;;5034750;28;20042;-72
2022/08/20 11:02:35;;;;;;;4.93;1.25;;;25.40;94.70;;;;;;5029376;28;20073;-72
2022/08/20 11:05:01;;;;;;;8.70;1.17;;;25.50;94.50;;;;;;4998012;28;20042;-71
2022/08/20 11:07:33;;;;;;;3.47;0.95;;;25.60;94.30;;;;;;4997844;28;20120;-71
2022/08/20 11:09:59;;;;;;;8.77;1.35;;;25.60;93.50;;;;;;5015024;28;20046;-73
2022/08/20 11:12:24;;;;;;;3.17;1.00;;;25.50;93.60;;;;;;5021527;28;20041;-71
2022/08/20 11:14:51;;;;;;;4.47;0.85;;;25.30;93.80;;;;;;5034638;28;20480;-71
2022/08/20 11:17:22;;;;;;;10.40;1.38;;;24.80;92.80;;;;;;5034533;28;20069;-71
2022/08/20 11:19:48;;;;;;;1.95;0.80;;;24.70;93.10;;;;;;5034406;28;20080;-71
2022/08/20 11:22:14;;;;;;;5.28;1.10;;;24.80;93.90;;;;;;5034476;28;20045;-70
2022/08/20 11:24:40;;;;;;;4.97;1.75;;;25.00;94.10;;;;;;5036730;28;20056;-70
2022/08/20 11:27:07;;;;;;;3.50;1.33;;;25.20;94.50;;;;;;5044208;28;20091;-70
2022/08/20 11:29:37;;;;;;;4.35;1.17;;;25.30;94.20;;;;;;5058211;28;20059;-70
2022/08/20 11:32:04;;;;;;;4.63;1.40;;;25.60;93.90;;;;;;5056805;28;20123;-71
2022/08/20 11:34:30;;;;;;;8.40;1.48;;;25.80;92.70;;;;;;5058245;28;20049;-70
2022/08/20 11:36:57;;;;;;;4.55;1.13;;;25.90;92.20;;;;;;5058232;28;20048;-70
2022/08/20 11:39:24;;;;;;;3.67;1.23;;;26.00;92.40;;;;;;5058284;28;20331;-70
2022/08/20 11:41:49;;;;;;;4.60;1.48;;;26.00;93.20;;;;;;5058046;28;20044;-70
2022/08/20 11:44:15;;;;;;;6.00;1.25;;;26.00;93.80;;;;;;5058114;28;20033;-71
2022/08/20 11:46:40;;;;;;;6.35;1.20;;;26.10;93.00;;;;;;5058977;28;20166;-70
2022/08/20 11:49:06;;;;;;;8.55;1.80;;;26.20;92.90;;;;;;5077707;28;20321;-70
2022/08/20 11:51:32;;;;;;;5.45;1.65;;;26.40;93.10;;;;;;5077845;28;20044;-70
2022/08/20 11:53:57;;;;;;;5.05;1.20;;;26.30;92.50;;;;;;5078007;28;20059;-71
2022/08/20 11:56:23;;;;;;;5.75;1.30;;;26.60;93.20;;;;;;5078105;28;20051;-71
2022/08/20 11:58:49;;;;;;;2.63;1.10;;;26.80;93.30;;;;;;5077611;28;20045;-71
2022/08/20 12:01:14;;;;;;;2.83;1.05;;;27.10;93.30;;;;;;5070481;28;20040;-71
2022/08/20 12:03:40;;;;;;;4.47;1.33;;;27.30;93.30;;;;;;5057626;28;20099;-71
2022/08/20 12:06:06;;;;;;;3.92;1.48;;;27.30;92.30;;;;;;5057634;28;20483;-71
2022/08/20 12:08:31;;;;;;;7.43;1.50;;;27.30;92.50;;;;;;5057494;28;20052;-72
2022/08/20 12:10:59;;;;;;;2.75;1.33;;;27.40;93.00;;;;;;5057446;28;20047;-71
2022/08/20 12:13:27;;;;;;;4.70;1.23;;;27.40;91.80;;;;;;5057396;28;20487;-72
2022/08/20 12:15:53;;;;;;;6.28;1.33;;;27.50;91.90;;;;;;5062917;28;20068;-71
2022/08/20 12:18:19;;;;;;;8.90;2.00;;;27.30;88.50;;;;;;5076571;28;20087;-69
2022/08/20 12:20:45;;;;;;;2.78;1.00;;;27.00;90.80;;;;;;5077150;28;20098;-69
2022/08/20 12:23:11;;;;;;;6.90;1.30;;;26.90;88.90;;;;;;5077631;28;20466;-69
2022/08/20 12:25:36;;;;;;;5.47;1.42;;;26.80;90.90;;;;;;5077330;28;20083;-69
2022/08/20 12:28:03;;;;;;;5.72;1.70;;;26.90;91.50;;;;;;5076544;28;20056;-69
2022/08/20 12:30:30;;;;;;;7.60;1.38;;;27.00;91.20;;;;;;5075128;28;20067;-69
2022/08/20 12:32:56;;;;;;;4.53;1.42;;;27.20;91.90;;;;;;5027335;28;20076;-69
2022/08/20 12:35:22;;;;;;;3.55;1.25;;;27.30;91.90;;;;;;5056434;28;20468;-69
2022/08/20 12:37:47;;;;;;;3.40;1.20;;;27.20;88.10;;;;;;5039249;28;20050;-69
2022/08/20 12:40:23;;;;;;;4.78;1.13;;;27.30;91.60;;;;;;5057049;28;20115;-69
2022/08/20 12:42:48;;;;;;;7.20;1.35;;;27.50;92.00;;;;;;5056910;28;20052;-69
2022/08/20 12:45:15;;;;;;;4.63;1.52;;;27.60;91.90;;;;;;5056837;28;20040;-70
2022/08/20 12:47:43;;;;;;;7.55;1.40;;;27.40;90.30;;;;;;5056670;28;20060;-70
2022/08/20 12:50:16;;;;;;;5.88;1.70;;;27.40;91.30;;;;;;5056789;28;20041;-71